createdAt,value
2023-03-08T00:03:45.188Z,5.26
2023-03-08T00:08:44.451Z,5.2
2023-03-08T00:13:44.208Z,5.07
2023-03-08T00:18:44.372Z,4.96
2023-03-08T00:23:43.727Z,4.88
2023-03-08T00:28:44.915Z,4.85
2023-03-08T00:33:51.731Z,4.77
2023-03-08T00:38:51.231Z,4.73
2023-03-08T00:43:51.595Z,4.73
2023-03-08T00:48:49.371Z,4.69
2023-03-08T00:53:48.806Z,4.64
2023-03-08T00:58:49.013Z,4.62
2023-03-08T01:03:48.157Z,4.64
2023-03-08T01:08:48.100Z,4.62
2023-03-08T01:13:48.848Z,4.55
2023-03-08T01:18:46.688Z,4.54
2023-03-08T01:23:46.158Z,4.5
2023-03-08T01:28:46.288Z,4.5
2023-03-08T01:33:34.868Z,4.44
2023-03-08T01:38:34.729Z,4.41
2023-03-08T01:43:34.507Z,4.37
2023-03-08T01:48:34.361Z,4.3
2023-03-08T01:53:35.208Z,4.19
2023-03-08T01:58:31.533Z,4.15
2023-03-08T01:59:53.001Z,4.12
2023-03-08T02:04:52.435Z,4.16
2023-03-08T02:09:53.075Z,4.14
2023-03-08T02:14:49.854Z,4.11
2023-03-08T02:19:49.450Z,4.09
2023-03-08T02:24:48.863Z,4.14
2023-03-08T02:29:48.553Z,4.17
2023-03-08T02:34:47.888Z,4.26
2023-03-08T02:39:47.683Z,4.32
2023-03-08T02:44:48.017Z,4.39
2023-03-08T02:49:48.198Z,4.44
2023-03-08T02:54:45.699Z,4.52
2023-03-08T02:59:13.049Z,4.53
2023-03-08T03:04:12.143Z,4.57
2023-03-08T03:09:11.701Z,4.6
2023-03-08T03:14:11.192Z,4.54
2023-03-08T03:19:10.749Z,4.46
2023-03-08T03:24:11.490Z,4.42
2023-03-08T03:29:10.562Z,4.36
2023-03-08T03:34:11.577Z,4.28
2023-03-08T03:39:08.377Z,4.35
2023-03-08T03:44:07.836Z,4.34
2023-03-08T03:49:07.540Z,4.32
2023-03-08T03:54:07.445Z,4.3
2023-03-08T03:58:51.701Z,4.23
2023-03-08T04:03:52.096Z,4.17
2023-03-08T04:08:51.685Z,4.15
2023-03-08T04:13:53.000Z,4.12
2023-03-08T04:18:48.941Z,4.15
2023-03-08T04:23:48.765Z,4.17
2023-03-08T04:28:48.321Z,4.23
2023-03-08T04:33:47.585Z,4.26
2023-03-08T04:38:47.377Z,4.21
2023-03-08T04:43:47.526Z,4.21
2023-03-08T04:48:46.897Z,4.21
2023-03-08T04:53:48.148Z,4.17
2023-03-08T04:58:44.492Z,4.17
2023-03-08T05:03:44.556Z,4.21
2023-03-08T05:08:44.012Z,4.21
2023-03-08T05:13:44.046Z,4.23
2023-03-08T05:18:52.316Z,4.21
2023-03-08T05:23:51.473Z,4.17
2023-03-08T05:28:51.785Z,4.13
2023-03-08T05:33:50.352Z,4.09
2023-03-08T05:38:50.807Z,4.04
2023-03-08T05:43:50.447Z,3.99
2023-03-08T05:48:51.211Z,3.97
2023-03-08T05:53:48.221Z,3.95
2023-03-08T05:58:48.391Z,3.92
2023-03-08T06:00:09.212Z,3.94
2023-03-08T06:05:08.755Z,3.93
2023-03-08T06:10:08.750Z,3.93
2023-03-08T06:15:08.643Z,3.96
2023-03-08T06:20:09.551Z,3.99
2023-03-08T06:25:06.046Z,3.99
2023-03-08T06:30:06.002Z,3.97
2023-03-08T06:35:05.545Z,4.01
2023-03-08T06:40:05.602Z,4.03
2023-03-08T06:45:03.488Z,4.08
2023-03-08T06:50:02.947Z,4.08
2023-03-08T06:55:02.293Z,4.02
2023-03-08T06:59:23.185Z,3.87
2023-03-08T07:04:22.843Z,3.71
2023-03-08T07:09:22.546Z,3.58
2023-03-08T07:14:22.638Z,3.49
2023-03-08T07:19:22.173Z,3.44
2023-03-08T07:24:23.320Z,3.36
2023-03-08T07:29:19.530Z,3.31
2023-03-08T07:34:19.487Z,3.27
2023-03-08T07:39:19.667Z,3.24
2023-03-08T07:44:18.959Z,3.14
2023-03-08T07:49:18.697Z,3.02
2023-03-08T07:54:20.469Z,2.88
2023-03-08T07:59:09.469Z,2.7
2023-03-08T08:04:10.967Z,2.6
2023-03-08T08:09:07.286Z,2.46
2023-03-08T08:14:07.579Z,2.33
2023-03-08T08:19:07.083Z,2.2
2023-03-08T08:24:07.005Z,2.14
2023-03-08T08:29:04.587Z,2.08
2023-03-08T08:34:04.558Z,2.05
2023-03-08T08:39:04.172Z,1.99
2023-03-08T08:44:03.989Z,1.85
2023-03-08T08:49:02.384Z,1.81
2023-03-08T08:54:02.074Z,1.83
2023-03-08T08:58:49.070Z,1.81
2023-03-08T09:03:48.930Z,1.87
2023-03-08T09:08:50.094Z,1.84
2023-03-08T09:13:46.502Z,1.88
2023-03-08T09:18:46.247Z,1.99
2023-03-08T09:23:46.045Z,2.08
2023-03-08T09:28:45.746Z,2.16
2023-03-08T09:33:45.274Z,2.16
2023-03-08T09:38:45.464Z,2.18
2023-03-08T09:43:44.946Z,2.26
2023-03-08T09:48:46.236Z,2.44
2023-03-08T09:53:42.739Z,2.57
2023-03-08T09:58:42.946Z,2.64
2023-03-08T10:03:52.776Z,2.72
2023-03-08T10:08:53.342Z,2.81
2023-03-08T10:13:50.598Z,2.94
2023-03-08T10:18:50.522Z,3.05
2023-03-08T10:23:51.009Z,3.09
2023-03-08T10:28:48.099Z,3.17
2023-03-08T10:33:47.675Z,3.43
2023-03-08T10:38:48.040Z,3.75
2023-03-08T10:43:35.696Z,3.92
2023-03-08T10:48:35.702Z,4.05
2023-03-08T10:53:34.864Z,4.17
2023-03-08T10:58:35.661Z,4.31
2023-03-08T10:59:56.518Z,4.33
2023-03-08T11:04:56.594Z,4.5
2023-03-08T11:09:55.824Z,4.69
2023-03-08T11:14:56.122Z,4.91
2023-03-08T11:19:53.616Z,5.11
2023-03-08T11:24:53.639Z,5.2
2023-03-08T11:29:52.999Z,5.32
2023-03-08T11:34:52.985Z,5.53
2023-03-08T11:39:52.366Z,6.02
2023-03-08T11:44:52.663Z,6.7
2023-03-08T11:49:51.513Z,7.43
2023-03-08T11:54:51.319Z,7.96
2023-03-08T11:58:57.516Z,8.35
2023-03-08T12:03:54.508Z,8.78
2023-03-08T12:08:54.497Z,9.14
2023-03-08T12:13:53.936Z,9.39
2023-03-08T12:18:53.993Z,9.54
2023-03-08T12:23:51.638Z,9.71
2023-03-08T12:28:51.398Z,9.82
2023-03-08T12:33:51.819Z,9.89
2023-03-08T12:38:52.775Z,10.03
2023-03-08T12:43:49.297Z,10.2
2023-03-08T12:53:49.093Z,10.43
2023-03-08T12:58:48.885Z,10.6
2023-03-08T13:03:46.634Z,10.79
2023-03-08T13:08:46.549Z,10.93
2023-03-08T13:13:46.284Z,11.07
2023-03-08T13:18:45.894Z,11.16
2023-03-08T13:23:45.681Z,11.15
2023-03-08T13:28:47.958Z,11.1
2023-03-08T13:33:45.269Z,11.05
2023-03-08T13:38:44.674Z,10.98
2023-03-08T13:43:45.826Z,10.66
2023-03-08T13:48:52.473Z,10.29
2023-03-08T13:53:51.822Z,9.99
2023-03-08T13:58:51.916Z,9.81
2023-03-08T14:03:49.716Z,9.72
2023-03-08T14:08:49.499Z,9.72
2023-03-08T14:13:50.524Z,9.77
2023-03-08T14:18:47.477Z,9.83
2023-03-08T14:23:47.221Z,9.89
2023-03-08T14:28:47.472Z,10.02
2023-03-08T14:33:42.204Z,10.14
2023-03-08T14:38:35.244Z,10.28
2023-03-08T14:43:34.766Z,10.38
2023-03-08T14:48:34.394Z,10.52
2023-03-08T14:53:33.878Z,10.63
2023-03-08T14:58:33.508Z,10.74
2023-03-08T14:59:54.933Z,10.75
2023-03-08T15:04:54.690Z,10.94
2023-03-08T15:09:56.295Z,11.08
2023-03-08T15:14:52.518Z,11.16
2023-03-08T15:19:52.934Z,11.22
2023-03-08T15:24:52.434Z,11.22
2023-03-08T15:29:52.496Z,11.13
2023-03-08T15:34:49.862Z,11.13
2023-03-08T15:40:43.745Z,11.21
2023-03-08T15:44:49.082Z,11.41
2023-03-08T15:49:48.505Z,11.72
2023-03-08T15:54:47.655Z,11.96
2023-03-08T15:59:12.584Z,11.99
2023-03-08T16:04:11.186Z,12
2023-03-08T16:09:10.729Z,12.04
2023-03-08T16:14:10.063Z,12.05
2023-03-08T16:19:09.717Z,11.97
2023-03-08T16:24:09.373Z,12
2023-03-08T16:29:08.923Z,12.04
2023-03-08T16:34:09.266Z,12.26
2023-03-08T16:44:09.999Z,12.41
2023-03-08T16:49:06.483Z,12.31
2023-03-08T16:54:06.322Z,12.24
2023-03-08T16:58:51.961Z,12.08
2023-03-08T17:03:52.217Z,12.05
2023-03-08T17:08:49.574Z,12.17
2023-03-08T17:13:49.603Z,12.2
2023-03-08T17:18:48.760Z,12.34
2023-03-08T17:23:48.564Z,12.41
2023-03-08T17:28:46.405Z,12.42
2023-03-08T17:33:46.421Z,12.39
2023-03-08T17:38:45.549Z,12.33
2023-03-08T17:43:45.572Z,12.26
2023-03-08T17:48:43.113Z,12.26
2023-03-08T17:53:42.976Z,12.29
2023-03-08T17:58:52.760Z,12.15
2023-03-08T18:03:54.255Z,12
2023-03-08T18:08:51.133Z,11.8
2023-03-08T18:13:50.793Z,11.32
2023-03-08T18:18:50.961Z,10.83
2023-03-08T18:23:49.086Z,10.71
2023-03-08T18:28:48.673Z,10.79
2023-03-08T18:33:48.953Z,10.8
2023-03-08T18:38:47.726Z,10.82
2023-03-08T18:43:48.207Z,10.81
2023-03-08T18:48:47.738Z,10.65
2023-03-08T18:53:48.574Z,10.59
2023-03-08T18:58:35.345Z,10.52
2023-03-08T19:03:35.560Z,10.52
2023-03-08T19:08:43.828Z,10.56
2023-03-08T19:13:33.286Z,10.57
2023-03-08T19:18:33.065Z,10.47
2023-03-08T19:23:32.208Z,10.39
2023-03-08T19:28:32.093Z,10.33
2023-03-08T19:33:31.885Z,10.2
2023-03-08T19:38:31.259Z,10.06
2023-03-08T19:43:31.389Z,9.93
2023-03-08T19:48:30.812Z,9.82
2023-03-08T19:53:32.356Z,9.75
2023-03-08T19:58:28.562Z,9.68
2023-03-08T20:03:29.027Z,9.64
2023-03-08T20:08:28.652Z,9.62
2023-03-08T20:13:27.360Z,9.63
2023-03-08T20:18:26.973Z,9.6
2023-03-08T20:23:26.875Z,9.57
2023-03-08T20:28:26.351Z,9.54
2023-03-08T20:33:27.599Z,9.53
2023-03-08T20:38:24.119Z,9.54
2023-03-08T20:43:23.858Z,9.53
2023-03-08T20:48:23.643Z,9.53
2023-03-08T20:53:22.877Z,9.52
2023-03-08T20:58:22.656Z,9.51
2023-03-08T20:59:44.201Z,9.49
2023-03-08T21:04:43.938Z,9.6
2023-03-08T21:09:44.843Z,9.66
2023-03-08T21:14:51.878Z,9.72
2023-03-08T21:19:51.691Z,9.78
2023-03-08T21:24:52.053Z,9.89
2023-03-08T21:29:49.782Z,9.95
2023-03-08T21:34:49.660Z,9.95
2023-03-08T21:39:49.533Z,9.91
2023-03-08T21:44:48.584Z,9.92
2023-03-08T21:49:48.554Z,9.93
2023-03-08T21:54:48.535Z,9.95
2023-03-08T21:58:52.121Z,9.97
2023-03-08T22:03:48.435Z,9.95
2023-03-08T22:08:48.140Z,9.95
2023-03-08T22:13:47.682Z,9.95
2023-03-08T22:18:46.477Z,9.99
2023-03-08T22:23:46.341Z,10.04
2023-03-08T22:28:46.176Z,10.08
2023-03-08T22:33:45.888Z,10.12
2023-03-08T22:38:47.240Z,10.16
2023-03-08T22:43:43.643Z,10.18
2023-03-08T22:48:43.650Z,10.2
2023-03-08T22:53:43.206Z,10.2
2023-03-08T22:58:43.119Z,10.18
2023-03-08T23:03:51.432Z,10.21
2023-03-08T23:08:50.801Z,10.22
2023-03-08T23:13:51.098Z,10.25
2023-03-08T23:18:49.711Z,10.27
2023-03-08T23:23:50.301Z,10.26
2023-03-08T23:28:50.031Z,10.29
2023-03-08T23:33:50.758Z,10.3
2023-03-08T23:38:47.750Z,10.26
2023-03-08T23:43:47.648Z,10.22
2023-03-08T23:48:49.257Z,10.16
2023-03-08T23:53:35.893Z,10.12
2023-03-08T23:58:35.864Z,10.06
2023-03-08T23:59:57.630Z,9.97
